Royal Princess — ZCDV2 — position and weather

sailwx.info

Track history (hours):
 
Tides and Currents Weather Stations Pressure Air Temp Water Temp Dewpoint Dewpoint Depression Visibility Wind Speed Wind Dir Waves Ship Positions

Royal Princess

Last reported at 2017-Sep-20 19:54 UTC. Time now 2017-Sep-21 23:11 UTC.
Position N 36°44' W 007°42'.

Type: Passenger vessel. MMSI: 310530000.

Date/timePositionNaut miles runAvg speedWind from/ knotsBaromVisibWave heightAir tempDewpointWater temp
2017-Sep-20 19:54N 36°44' W 007°42'513.0
2017-Sep-20 19:29N 36°43' W 007°48'612.5
2017-Sep-20 19:00N 36°46' W 007°55'713.1
2017-Sep-20 18:30N 36°49' W 008°02'713.3
2017-Sep-20 18:00N 36°53' W 008°09'613.0
2017-Sep-20 17:30N 36°56' W 008°16'612.8
2017-Sep-20 17:00N 36°59' W 008°23'612.6
2017-Sep-20 16:30N 37°03' W 008°29'4 8.0
2017-Sep-20 16:00N 37°07' W 008°32'1 2.0
2017-Sep-20 15:28N 37°08' W 008°32'0 0.0
2017-Sep-20 14:58N 37°08' W 008°32'0 0.0
2017-Sep-20 13:58N 37°08' W 008°32'0 0.0
2017-Sep-20 13:28N 37°08' W 008°32'0 0.0
2017-Sep-20 12:58N 37°08' W 008°32'0 0.0
2017-Sep-20 12:28N 37°08' W 008°32'0 0.0
2017-Sep-20 11:58N 37°08' W 008°32'0 0.0
2017-Sep-20 11:28N 37°08' W 008°32'0 0.0
2017-Sep-20 10:55N 37°08' W 008°32'0 0.0
2017-Sep-20 10:31N 37°08' W 008°32'0 0.0
2017-Sep-20 10:01N 37°08' W 008°32'0 0.0
2017-Sep-20 09:31N 37°08' W 008°32'0 0.0
2017-Sep-20 09:01N 37°08' W 008°32'0 0.0
2017-Sep-20 08:31N 37°08' W 008°32'0 0.0
2017-Sep-20 08:01N 37°08' W 008°32'0 0.2
2017-Sep-20 07:30N 37°08' W 008°32'2 3.7
2017-Sep-20 07:00N 37°06' W 008°32'5 9.6
2017-Sep-20 06:30N 37°01' W 008°34'713.1
2017-Sep-20 06:00N 36°57' W 008°41'713.5
2017-Sep-20 05:30N 36°54' W 008°48'813.0
2017-Sep-20 04:53N 36°49' W 008°56'513.0
2017-Sep-20 04:30N 36°50' W 009°02'612.8
2017-Sep-20 04:00N 36°53' W 009°09'714.5
2017-Sep-20 03:30N 36°59' W 009°13'815.2
2017-Sep-20 03:00N 37°07' W 009°15'815.1
2017-Sep-20 02:30N 37°14' W 009°19'815.0
2017-Sep-20 01:57N 37°21' W 009°23'715.2
2017-Sep-20 01:30N 37°28' W 009°26'815.0
2017-Sep-20 01:00N 37°35' W 009°29'715.0
2017-Sep-20 00:30N 37°42' W 009°33'815.1
2017-Sep-20 00:00N 37°48' W 009°38'815.4
2017-Sep-19 23:30N 37°55' W 009°42'815.3
2017-Sep-19 23:00N 38°02' W 009°47'815.5
2017-Sep-19 22:31N 38°09' W 009°50'815.5
2017-Sep-19 22:01N 38°16' W 009°54'815.5
2017-Sep-19 21:30N 38°23' W 009°58'815.8
2017-Sep-19 21:01N 38°31' W 010°02'816.0
2017-Sep-19 20:30N 38°38' W 010°05'816.2
2017-Sep-19 20:00N 38°46' W 010°07'815.7
2017-Sep-19 19:30N 38°54' W 010°07'815.7
2017-Sep-19 19:00N 39°02' W 010°07'815.6
2017-Sep-19 18:31N 39°10' W 010°07'815.3
2017-Sep-19 18:01N 39°17' W 010°07'2015.3
2017-Sep-19 16:42N 39°37' W 010°07'53816.3
2017-Sep-18 07:42N 48°03' W 005°52'2418.4
2017-Sep-18 06:24N 48°23' W 005°33'718.2
2017-Sep-18 06:00N 48°29' W 005°26'917.7
2017-Sep-18 05:30N 48°36' W 005°18'917.2
2017-Sep-18 05:00N 48°42' W 005°09'816.8
2017-Sep-18 04:30N 48°48' W 005°00'4815.7
2017-Sep-18 01:27N 49°18' W 004°03'1216.4
2017-Sep-18 00:44N 49°27' W 003°51'417.0
2017-Sep-18 00:30N 49°30' W 003°47'917.5
2017-Sep-18 00:00N 49°36' W 003°38'918.1
2017-Sep-17 23:30N 49°42' W 003°28'918.5
2017-Sep-17 23:00N 49°48' W 003°17'918.5
2017-Sep-17 22:30N 49°54' W 003°06'918.5
2017-Sep-17 22:00N 49°58' W 002°53'918.2
2017-Sep-17 21:30N 50°00' W 002°39'3716.3
2017-Sep-17 19:15N 50°25' W 001°56'415.3
2017-Sep-17 19:00N 50°28' W 001°52'715.2
2017-Sep-17 18:30N 50°33' W 001°44'714.7
2017-Sep-17 18:01N 50°39' W 001°37'611.8
2017-Sep-17 17:31N 50°43' W 001°30'611.0
2017-Sep-17 17:00N 50°45' W 001°22'5 9.4
2017-Sep-17 16:30N 50°49' W 001°17'611.1
2017-Sep-17 16:00N 50°53' W 001°24'2 0.8
2017-Sep-17 13:13N 50°54' W 001°26'0 0.0
2017-Sep-17 12:43N 50°54' W 001°26'0 0.0
2017-Sep-17 12:19N 50°54' W 001°26'0 0.0
2017-Sep-17 11:43N 50°54' W 001°26'0 0.0
2017-Sep-17 11:28N 50°54' W 001°26'0 0.0
2017-Sep-17 10:01N 50°54' W 001°26'0 0.0
2017-Sep-17 09:55N 50°54' W 001°26'0 0.0
2017-Sep-17 09:28N 50°54' W 001°26'0 0.0
2017-Sep-17 08:52N 50°54' W 001°26'0 0.0
2017-Sep-17 08:25N 50°54' W 001°26'0 0.0
2017-Sep-17 07:43N 50°54' W 001°26'0 0.0
2017-Sep-17 07:13N 50°54' W 001°26'0 0.0
2017-Sep-17 06:58N 50°54' W 001°26'0 0.0
2017-Sep-17 06:25N 50°54' W 001°26'0 0.0
2017-Sep-17 05:58N 50°54' W 001°26'0 0.2
2017-Sep-17 05:30N 50°54' W 001°26'3 6.1
2017-Sep-17 05:00N 50°52' W 001°22'510.0
2017-Sep-17 04:30N 50°48' W 001°18'510.1
2017-Sep-17 04:00N 50°46' W 001°11'714.8
2017-Sep-17 03:30N 50°43' W 001°00'4 7.4
2017-Sep-17 03:00N 50°39' W 000°59'5 9.4
2017-Sep-17 02:28N 50°34' W 000°60'511.5
2017-Sep-17 02:00N 50°31' W 001°06'612.2
2017-Sep-17 01:30N 50°29' W 001°15'59 8.8
2017-Sep-16 18:52N 49°40' W 000°25'410.9
2017-Sep-16 18:30N 49°37' W 000°21'510.5
2017-Sep-16 18:00N 49°33' W 000°16'510.2
2017-Sep-16 17:30N 49°30' W 000°09'510.7
2017-Sep-16 17:00N 49°28' W 000°02'611.1
2017-Sep-16 16:30N 49°26' E 000°06'510.1
2017-Sep-16 16:00N 49°26' E 000°14'0 0.3
2017-Sep-16 15:28N 49°26' E 000°14'0 0.0
2017-Sep-16 14:58N 49°26' E 000°14'0 0.0
2017-Sep-16 14:28N 49°26' E 000°14'0 0.0
2017-Sep-16 13:58N 49°26' E 000°14'0 0.0
2017-Sep-16 13:28N 49°26' E 000°14'0 0.0
2017-Sep-16 12:58N 49°26' E 000°14'0 0.0
2017-Sep-16 12:28N 49°26' E 000°14'0 0.0
2017-Sep-16 11:58N 49°26' E 000°14'0 0.0
2017-Sep-16 11:28N 49°26' E 000°14'0 0.0
2017-Sep-16 10:58N 49°26' E 000°14'0 0.0
2017-Sep-16 10:28N 49°26' E 000°14'0 0.0
2017-Sep-16 09:58N 49°26' E 000°14'0 0.0
2017-Sep-16 09:28N 49°26' E 000°14'0 0.0
2017-Sep-16 08:58N 49°26' E 000°14'0 0.0
2017-Sep-16 08:28N 49°26' E 000°14'0 0.0
2017-Sep-16 07:58N 49°26' E 000°14'0 0.0
2017-Sep-16 07:28N 49°26' E 000°14'0 0.0
2017-Sep-16 06:58N 49°26' E 000°14'0 0.0
2017-Sep-16 06:28N 49°26' E 000°14'0 0.0
2017-Sep-16 05:58N 49°26' E 000°14'0 0.0
2017-Sep-16 05:28N 49°26' E 000°14'0 0.8
2017-Sep-16 05:01N 49°26' E 000°14'510.8
2017-Sep-16 04:30N 49°26' E 000°05'612.4
2017-Sep-16 04:00N 49°28' W 000°04'5 9.8
2017-Sep-16 03:31N 49°30' W 000°11'4611.4
2017-Sep-15 23:28N 49°56' W 001°09'510.8
2017-Sep-15 23:00N 49°56' W 001°17'611.1
2017-Sep-15 22:30N 49°55' W 001°25'611.4
2017-Sep-15 22:00N 49°53' W 001°34'611.5
2017-Sep-15 21:30N 49°53' W 001°42'611.4
2017-Sep-15 21:01N 49°51' W 001°51'611.3
2017-Sep-15 20:30N 49°49' W 001°59'1210.8
2017-Sep-15 19:26N 49°38' W 002°04'61 3.3
2017-Sep-15 01:00N 49°12' W 003°30'3514.2 300 / 151016.810.8 14.511.717.0
2017-Sep-14 22:29N 48°60' W 004°21'510.3
2017-Sep-14 21:57N 48°58' W 004°28'510.1
2017-Sep-14 21:30N 48°56' W 004°35'510.0
2017-Sep-14 21:00N 48°54' W 004°42'5 9.9
2017-Sep-14 20:30N 48°52' W 004°49'5 9.6
2017-Sep-14 20:00N 48°50' W 004°55'5 9.3
2017-Sep-14 19:30N 48°47' W 005°01'5 9.2
2017-Sep-14 19:00N 48°44' W 005°06'5 9.0
2017-Sep-14 18:30N 48°41' W 005°11'510.1
2017-Sep-14 18:00N 48°37' W 005°16'611.2
2017-Sep-14 17:30N 48°33' W 005°22'611.8
2017-Sep-14 17:00N 48°28' W 005°26'4256.7
2017-Sep-14 17:00N 48°24' W 005°24'3 6.1 340 / 121019.127.0 14.510.714.0
2017-Sep-14 16:30N 48°21' W 005°26'612.7
2017-Sep-14 16:00N 48°15' W 005°26'612.4
2017-Sep-14 15:29N 48°09' W 005°26'1112.2
2017-Sep-14 14:33N 47°57' W 005°26'811.2
2017-Sep-14 13:48N 47°49' W 005°23'310.8
2017-Sep-14 13:29N 47°47' W 005°19'611.5
2017-Sep-14 13:01N 47°43' W 005°13'611.4
2017-Sep-14 12:30N 47°39' W 005°07'611.0
2017-Sep-14 11:55N 47°35' W 005°00'7110.2
2017-Sep-14 05:00N 46°48' W 003°42'39 7.8 330 / 321013.110.8 15.013.218.0
2017-Sep-14 00:00N 46°18' W 003°06'7510.8 280 / 251011.8 5.4 15.013.218.0
2017-Sep-13 17:00N 45°36' W 001°36'3 7.7 260 / 261014.510.8 19.617.018.0
2017-Sep-13 16:36N 45°38' W 001°33'110.5
2017-Sep-13 16:29N 45°38' W 001°32'610.6
2017-Sep-13 15:54N 45°36' W 001°24'410.7
2017-Sep-13 15:30N 45°38' W 001°18'612.2
2017-Sep-13 15:00N 45°39' W 001°10'613.0
2017-Sep-13 14:30N 45°35' W 001°03'713.8
2017-Sep-13 14:01N 45°29' W 000°57'815.6
2017-Sep-13 13:30N 45°23' W 000°50'38 5.1
2017-Sep-13 06:00N 44°48' W 000°30'28 1.3 260 / 61019.3 1.1 19.517.021.0
2017-Sep-12 08:07N 45°14' W 000°44'213.8
2017-Sep-12 07:57N 45°16' W 000°45'716.0
2017-Sep-12 07:30N 45°23' W 000°49'816.0
2017-Sep-12 06:59N 45°29' W 000°56'816.1
2017-Sep-12 06:29N 45°35' W 001°03'816.6
2017-Sep-12 06:00N 45°40' W 001°13'815.1
2017-Sep-12 05:30N 45°36' W 001°22'7010.7
2017-Sep-11 23:00N 46°12' W 002°48'11220.2 290 / 201013.410.8 16.512.015.0
2017-Sep-11 17:27N 47°28' W 004°49'716.7
2017-Sep-11 17:00N 47°33' W 004°57'816.6
2017-Sep-11 16:30N 47°38' W 005°06'917.3
2017-Sep-11 16:00N 47°42' W 005°18'1716.4 290 / 251008.4 5.4 15.512.015.0
2017-Sep-11 14:58N 47°58' W 005°26'816.4
2017-Sep-11 14:30N 48°05' W 005°26'917.2
2017-Sep-11 13:59N 48°14' W 005°26'917.9
2017-Sep-11 13:30N 48°23' W 005°26'817.0
2017-Sep-11 13:00N 48°31' W 005°23'816.4
2017-Sep-11 12:30N 48°38' W 005°15'815.9
2017-Sep-11 12:00N 48°43' W 005°07'815.2
2017-Sep-11 11:30N 48°48' W 004°58'814.6
2017-Sep-11 10:59N 48°53' W 004°50'4812.1
2017-Sep-11 07:02N 49°26' W 003°57'1 9.9
2017-Sep-11 06:57N 49°27' W 003°56'610.9
2017-Sep-11 06:23N 49°31' W 003°49'511.8
2017-Sep-11 06:00N 49°35' W 003°44'611.3
2017-Sep-11 05:30N 49°37' W 003°37'612.3
2017-Sep-11 05:00N 49°41' W 003°29'713.5
2017-Sep-11 04:30N 49°45' W 003°22'612.5
2017-Sep-11 04:00N 49°50' W 003°14'611.5
2017-Sep-11 03:30N 49°53' W 003°08'611.7
2017-Sep-11 03:01N 49°57' W 003°01'3206.8
2017-Sep-11 03:00N 49°54' W 003°00'715.2 290 / 52994.4 5.4 12.010.116.0
2017-Sep-11 02:30N 49°60' W 002°53'611.3
2017-Sep-11 02:00N 50°01' W 002°44'29 9.0
2017-Sep-10 22:49N 50°12' W 002°03'2 7.4
2017-Sep-10 22:30N 50°13' W 001°59'4 7.5
2017-Sep-10 22:00N 50°15' W 001°54'510.0
2017-Sep-10 21:28N 50°17' W 001°47'  
Track history (hours):
 
Tides and Currents Weather Stations Pressure Air Temp Water Temp Dewpoint Dewpoint Depression Visibility Wind Speed Wind Dir Waves Ship Positions

Royal Princess

Last reported at 2017-Sep-20 19:54 UTC. Time now 2017-Sep-21 23:11 UTC.
Position N 36°44' W 007°42'.

Type: Passenger vessel. MMSI: 310530000.

Date/timePositionNaut miles runAvg speedWind from/ knotsBaromVisibWave heightAir tempDewpointWater temp
2017-Sep-20 19:54N 36°44' W 007°42'513.0
2017-Sep-20 19:29N 36°43' W 007°48'612.5
2017-Sep-20 19:00N 36°46' W 007°55'713.1
2017-Sep-20 18:30N 36°49' W 008°02'713.3
2017-Sep-20 18:00N 36°53' W 008°09'613.0
2017-Sep-20 17:30N 36°56' W 008°16'612.8
2017-Sep-20 17:00N 36°59' W 008°23'612.6
2017-Sep-20 16:30N 37°03' W 008°29'4 8.0
2017-Sep-20 16:00N 37°07' W 008°32'1 2.0
2017-Sep-20 15:28N 37°08' W 008°32'0 0.0
2017-Sep-20 14:58N 37°08' W 008°32'0 0.0
2017-Sep-20 13:58N 37°08' W 008°32'0 0.0
2017-Sep-20 13:28N 37°08' W 008°32'0 0.0
2017-Sep-20 12:58N 37°08' W 008°32'0 0.0
2017-Sep-20 12:28N 37°08' W 008°32'0 0.0
2017-Sep-20 11:58N 37°08' W 008°32'0 0.0
2017-Sep-20 11:28N 37°08' W 008°32'0 0.0
2017-Sep-20 10:55N 37°08' W 008°32'0 0.0
2017-Sep-20 10:31N 37°08' W 008°32'0 0.0
2017-Sep-20 10:01N 37°08' W 008°32'0 0.0
2017-Sep-20 09:31N 37°08' W 008°32'0 0.0
2017-Sep-20 09:01N 37°08' W 008°32'0 0.0
2017-Sep-20 08:31N 37°08' W 008°32'0 0.0
2017-Sep-20 08:01N 37°08' W 008°32'0 0.2
2017-Sep-20 07:30N 37°08' W 008°32'2 3.7
2017-Sep-20 07:00N 37°06' W 008°32'5 9.6
2017-Sep-20 06:30N 37°01' W 008°34'713.1
2017-Sep-20 06:00N 36°57' W 008°41'713.5
2017-Sep-20 05:30N 36°54' W 008°48'813.0
2017-Sep-20 04:53N 36°49' W 008°56'513.0
2017-Sep-20 04:30N 36°50' W 009°02'612.8
2017-Sep-20 04:00N 36°53' W 009°09'714.5
2017-Sep-20 03:30N 36°59' W 009°13'815.2
2017-Sep-20 03:00N 37°07' W 009°15'815.1
2017-Sep-20 02:30N 37°14' W 009°19'815.0
2017-Sep-20 01:57N 37°21' W 009°23'715.2
2017-Sep-20 01:30N 37°28' W 009°26'815.0
2017-Sep-20 01:00N 37°35' W 009°29'715.0
2017-Sep-20 00:30N 37°42' W 009°33'815.1
2017-Sep-20 00:00N 37°48' W 009°38'815.4
2017-Sep-19 23:30N 37°55' W 009°42'815.3
2017-Sep-19 23:00N 38°02' W 009°47'815.5
2017-Sep-19 22:31N 38°09' W 009°50'815.5
2017-Sep-19 22:01N 38°16' W 009°54'815.5
2017-Sep-19 21:30N 38°23' W 009°58'815.8
2017-Sep-19 21:01N 38°31' W 010°02'816.0
2017-Sep-19 20:30N 38°38' W 010°05'816.2
2017-Sep-19 20:00N 38°46' W 010°07'815.7
2017-Sep-19 19:30N 38°54' W 010°07'815.7
2017-Sep-19 19:00N 39°02' W 010°07'815.6
2017-Sep-19 18:31N 39°10' W 010°07'815.3
2017-Sep-19 18:01N 39°17' W 010°07'2015.3
2017-Sep-19 16:42N 39°37' W 010°07'53816.3
2017-Sep-18 07:42N 48°03' W 005°52'2418.4
2017-Sep-18 06:24N 48°23' W 005°33'718.2
2017-Sep-18 06:00N 48°29' W 005°26'917.7
2017-Sep-18 05:30N 48°36' W 005°18'917.2
2017-Sep-18 05:00N 48°42' W 005°09'816.8
2017-Sep-18 04:30N 48°48' W 005°00'4815.7
2017-Sep-18 01:27N 49°18' W 004°03'1216.4
2017-Sep-18 00:44N 49°27' W 003°51'417.0
2017-Sep-18 00:30N 49°30' W 003°47'917.5
2017-Sep-18 00:00N 49°36' W 003°38'918.1
2017-Sep-17 23:30N 49°42' W 003°28'918.5
2017-Sep-17 23:00N 49°48' W 003°17'918.5
2017-Sep-17 22:30N 49°54' W 003°06'918.5
2017-Sep-17 22:00N 49°58' W 002°53'918.2
2017-Sep-17 21:30N 50°00' W 002°39'3716.3
2017-Sep-17 19:15N 50°25' W 001°56'415.3
2017-Sep-17 19:00N 50°28' W 001°52'715.2
2017-Sep-17 18:30N 50°33' W 001°44'714.7
2017-Sep-17 18:01N 50°39' W 001°37'611.8
2017-Sep-17 17:31N 50°43' W 001°30'611.0
2017-Sep-17 17:00N 50°45' W 001°22'5 9.4
2017-Sep-17 16:30N 50°49' W 001°17'611.1
2017-Sep-17 16:00N 50°53' W 001°24'2 0.8
2017-Sep-17 13:13N 50°54' W 001°26'0 0.0
2017-Sep-17 12:43N 50°54' W 001°26'0 0.0
2017-Sep-17 12:19N 50°54' W 001°26'0 0.0
2017-Sep-17 11:43N 50°54' W 001°26'0 0.0
2017-Sep-17 11:28N 50°54' W 001°26'0 0.0
2017-Sep-17 10:01N 50°54' W 001°26'0 0.0
2017-Sep-17 09:55N 50°54' W 001°26'0 0.0
2017-Sep-17 09:28N 50°54' W 001°26'0 0.0
2017-Sep-17 08:52N 50°54' W 001°26'0 0.0
2017-Sep-17 08:25N 50°54' W 001°26'0 0.0
2017-Sep-17 07:43N 50°54' W 001°26'0 0.0
2017-Sep-17 07:13N 50°54' W 001°26'0 0.0
2017-Sep-17 06:58N 50°54' W 001°26'0 0.0
2017-Sep-17 06:25N 50°54' W 001°26'0 0.0
2017-Sep-17 05:58N 50°54' W 001°26'0 0.2
2017-Sep-17 05:30N 50°54' W 001°26'3 6.1
2017-Sep-17 05:00N 50°52' W 001°22'510.0
2017-Sep-17 04:30N 50°48' W 001°18'510.1
2017-Sep-17 04:00N 50°46' W 001°11'714.8
2017-Sep-17 03:30N 50°43' W 001°00'4 7.4
2017-Sep-17 03:00N 50°39' W 000°59'5 9.4
2017-Sep-17 02:28N 50°34' W 000°60'511.5
2017-Sep-17 02:00N 50°31' W 001°06'612.2
2017-Sep-17 01:30N 50°29' W 001°15'59 8.8
2017-Sep-16 18:52N 49°40' W 000°25'410.9
2017-Sep-16 18:30N 49°37' W 000°21'510.5
2017-Sep-16 18:00N 49°33' W 000°16'510.2
2017-Sep-16 17:30N 49°30' W 000°09'510.7
2017-Sep-16 17:00N 49°28' W 000°02'611.1
2017-Sep-16 16:30N 49°26' E 000°06'510.1
2017-Sep-16 16:00N 49°26' E 000°14'0 0.3
2017-Sep-16 15:28N 49°26' E 000°14'0 0.0
2017-Sep-16 14:58N 49°26' E 000°14'0 0.0
2017-Sep-16 14:28N 49°26' E 000°14'0 0.0
2017-Sep-16 13:58N 49°26' E 000°14'0 0.0
2017-Sep-16 13:28N 49°26' E 000°14'0 0.0
2017-Sep-16 12:58N 49°26' E 000°14'0 0.0
2017-Sep-16 12:28N 49°26' E 000°14'0 0.0
2017-Sep-16 11:58N 49°26' E 000°14'0 0.0
2017-Sep-16 11:28N 49°26' E 000°14'0 0.0
2017-Sep-16 10:58N 49°26' E 000°14'0 0.0
2017-Sep-16 10:28N 49°26' E 000°14'0 0.0
2017-Sep-16 09:58N 49°26' E 000°14'0 0.0
2017-Sep-16 09:28N 49°26' E 000°14'0 0.0
2017-Sep-16 08:58N 49°26' E 000°14'0 0.0
2017-Sep-16 08:28N 49°26' E 000°14'0 0.0
2017-Sep-16 07:58N 49°26' E 000°14'0 0.0
2017-Sep-16 07:28N 49°26' E 000°14'0 0.0
2017-Sep-16 06:58N 49°26' E 000°14'0 0.0
2017-Sep-16 06:28N 49°26' E 000°14'0 0.0
2017-Sep-16 05:58N 49°26' E 000°14'0 0.0
2017-Sep-16 05:28N 49°26' E 000°14'0 0.8
2017-Sep-16 05:01N 49°26' E 000°14'510.8
2017-Sep-16 04:30N 49°26' E 000°05'612.4
2017-Sep-16 04:00N 49°28' W 000°04'5 9.8
2017-Sep-16 03:31N 49°30' W 000°11'4611.4
2017-Sep-15 23:28N 49°56' W 001°09'510.8
2017-Sep-15 23:00N 49°56' W 001°17'611.1
2017-Sep-15 22:30N 49°55' W 001°25'611.4
2017-Sep-15 22:00N 49°53' W 001°34'611.5
2017-Sep-15 21:30N 49°53' W 001°42'611.4
2017-Sep-15 21:01N 49°51' W 001°51'611.3
2017-Sep-15 20:30N 49°49' W 001°59'1210.8
2017-Sep-15 19:26N 49°38' W 002°04'61 3.3
2017-Sep-15 01:00N 49°12' W 003°30'3514.2 300 / 151016.810.8 14.511.717.0
2017-Sep-14 22:29N 48°60' W 004°21'510.3
2017-Sep-14 21:57N 48°58' W 004°28'510.1
2017-Sep-14 21:30N 48°56' W 004°35'510.0
2017-Sep-14 21:00N 48°54' W 004°42'5 9.9
2017-Sep-14 20:30N 48°52' W 004°49'5 9.6
2017-Sep-14 20:00N 48°50' W 004°55'5 9.3
2017-Sep-14 19:30N 48°47' W 005°01'5 9.2
2017-Sep-14 19:00N 48°44' W 005°06'5 9.0
2017-Sep-14 18:30N 48°41' W 005°11'510.1
2017-Sep-14 18:00N 48°37' W 005°16'611.2
2017-Sep-14 17:30N 48°33' W 005°22'611.8
2017-Sep-14 17:00N 48°28' W 005°26'4256.7
2017-Sep-14 17:00N 48°24' W 005°24'3 6.1 340 / 121019.127.0 14.510.714.0
2017-Sep-14 16:30N 48°21' W 005°26'612.7
2017-Sep-14 16:00N 48°15' W 005°26'612.4
2017-Sep-14 15:29N 48°09' W 005°26'1112.2
2017-Sep-14 14:33N 47°57' W 005°26'811.2
2017-Sep-14 13:48N 47°49' W 005°23'310.8
2017-Sep-14 13:29N 47°47' W 005°19'611.5
2017-Sep-14 13:01N 47°43' W 005°13'611.4
2017-Sep-14 12:30N 47°39' W 005°07'611.0
2017-Sep-14 11:55N 47°35' W 005°00'7110.2
2017-Sep-14 05:00N 46°48' W 003°42'39 7.8 330 / 321013.110.8 15.013.218.0
2017-Sep-14 00:00N 46°18' W 003°06'7510.8 280 / 251011.8 5.4 15.013.218.0
2017-Sep-13 17:00N 45°36' W 001°36'3 7.7 260 / 261014.510.8 19.617.018.0
2017-Sep-13 16:36N 45°38' W 001°33'110.5
2017-Sep-13 16:29N 45°38' W 001°32'610.6
2017-Sep-13 15:54N 45°36' W 001°24'410.7
2017-Sep-13 15:30N 45°38' W 001°18'612.2
2017-Sep-13 15:00N 45°39' W 001°10'613.0
2017-Sep-13 14:30N 45°35' W 001°03'713.8
2017-Sep-13 14:01N 45°29' W 000°57'815.6
2017-Sep-13 13:30N 45°23' W 000°50'38 5.1
2017-Sep-13 06:00N 44°48' W 000°30'28 1.3 260 / 61019.3 1.1 19.517.021.0
2017-Sep-12 08:07N 45°14' W 000°44'213.8
2017-Sep-12 07:57N 45°16' W 000°45'716.0
2017-Sep-12 07:30N 45°23' W 000°49'816.0
2017-Sep-12 06:59N 45°29' W 000°56'816.1
2017-Sep-12 06:29N 45°35' W 001°03'816.6
2017-Sep-12 06:00N 45°40' W 001°13'815.1
2017-Sep-12 05:30N 45°36' W 001°22'7010.7
2017-Sep-11 23:00N 46°12' W 002°48'11220.2 290 / 201013.410.8 16.512.015.0
2017-Sep-11 17:27N 47°28' W 004°49'716.7
2017-Sep-11 17:00N 47°33' W 004°57'816.6
2017-Sep-11 16:30N 47°38' W 005°06'917.3
2017-Sep-11 16:00N 47°42' W 005°18'1716.4 290 / 251008.4 5.4 15.512.015.0
2017-Sep-11 14:58N 47°58' W 005°26'816.4
2017-Sep-11 14:30N 48°05' W 005°26'917.2
2017-Sep-11 13:59N 48°14' W 005°26'917.9
2017-Sep-11 13:30N 48°23' W 005°26'817.0
2017-Sep-11 13:00N 48°31' W 005°23'816.4
2017-Sep-11 12:30N 48°38' W 005°15'815.9
2017-Sep-11 12:00N 48°43' W 005°07'815.2
2017-Sep-11 11:30N 48°48' W 004°58'814.6
2017-Sep-11 10:59N 48°53' W 004°50'4812.1
2017-Sep-11 07:02N 49°26' W 003°57'1 9.9
2017-Sep-11 06:57N 49°27' W 003°56'610.9
2017-Sep-11 06:23N 49°31' W 003°49'511.8
2017-Sep-11 06:00N 49°35' W 003°44'611.3
2017-Sep-11 05:30N 49°37' W 003°37'612.3
2017-Sep-11 05:00N 49°41' W 003°29'713.5
2017-Sep-11 04:30N 49°45' W 003°22'612.5
2017-Sep-11 04:00N 49°50' W 003°14'611.5
2017-Sep-11 03:30N 49°53' W 003°08'611.7
2017-Sep-11 03:01N 49°57' W 003°01'3206.8
2017-Sep-11 03:00N 49°54' W 003°00'715.2 290 / 52994.4 5.4 12.010.116.0
2017-Sep-11 02:30N 49°60' W 002°53'611.3
2017-Sep-11 02:00N 50°01' W 002°44'29 9.0
2017-Sep-10 22:49N 50°12' W 002°03'2 7.4
2017-Sep-10 22:30N 50°13' W 001°59'4 7.5
2017-Sep-10 22:00N 50°15' W 001°54'510.0
2017-Sep-10 21:28N 50°17' W 001°47'  

Dump ship's entire track history